Time;durP1;ratioP1;P1;durP2;ratioP2;P2;SDS_P1;SDS_P2;PMS_P1;PMS_P2;Temp;Humidity;BMP_temperature;BMP_pressure;BME280_temperature;BME280_humidity;BME280_pressure;Samples;Min_cycle;Max_cycle;Signal;HPM_P1;HPM_P2
2023/08/04 00:00:29;;;;;;;6.00;1.60;;;16.20;99.90;;;;;;5033839;28;20048;-71
2023/08/04 00:02:55;;;;;;;4.75;1.35;;;16.20;99.90;;;;;;5033803;28;20056;-70
2023/08/04 00:05:21;;;;;;;3.97;1.30;;;16.00;99.90;;;;;;5034273;28;20123;-71
2023/08/04 00:07:46;;;;;;;4.97;1.50;;;16.10;99.90;;;;;;5050775;28;20187;-70
2023/08/04 00:10:12;;;;;;;3.63;1.30;;;16.10;99.90;;;;;;5051592;28;20370;-71
2023/08/04 00:12:38;;;;;;;5.85;1.20;;;16.00;99.90;;;;;;5051651;28;20053;-70
2023/08/04 00:15:06;;;;;;;3.55;1.08;;;15.90;99.90;;;;;;5033810;28;20044;-70
2023/08/04 00:17:33;;;;;;;3.58;1.20;;;15.90;99.90;;;;;;5054218;28;20068;-71
2023/08/04 00:19:59;;;;;;;3.35;1.20;;;15.80;99.90;;;;;;5055239;28;20036;-70
2023/08/04 00:22:26;;;;;;;2.30;0.80;;;15.80;99.90;;;;;;5054972;28;20045;-70
2023/08/04 00:24:52;;;;;;;3.15;0.90;;;15.70;99.90;;;;;;5037046;28;20455;-71
2023/08/04 00:27:19;;;;;;;4.70;1.15;;;15.70;99.90;;;;;;5052449;28;20059;-71
2023/08/04 00:29:44;;;;;;;2.90;1.10;;;15.70;99.90;;;;;;5053566;28;20131;-71
2023/08/04 00:32:10;;;;;;;3.92;0.90;;;15.70;99.90;;;;;;5053443;28;20560;-71
2023/08/04 00:34:35;;;;;;;3.10;1.08;;;15.60;99.90;;;;;;5054996;28;20091;-71
2023/08/04 00:37:01;;;;;;;2.55;0.85;;;15.60;99.90;;;;;;5054926;28;20049;-71
2023/08/04 00:39:27;;;;;;;2.42;0.90;;;15.60;99.90;;;;;;5055065;28;20041;-71
2023/08/04 00:41:52;;;;;;;2.67;0.98;;;15.50;99.90;;;;;;5054682;28;20041;-72
2023/08/04 00:44:21;;;;;;;4.30;1.10;;;15.50;99.90;;;;;;5054131;28;20040;-71
2023/08/04 00:46:46;;;;;;;2.50;0.80;;;15.50;99.90;;;;;;5054922;28;20041;-70
2023/08/04 00:49:12;;;;;;;2.22;0.98;;;15.50;99.90;;;;;;5053435;28;20060;-71
2023/08/04 00:51:38;;;;;;;2.50;0.95;;;15.50;99.90;;;;;;5053514;28;20625;-71
2023/08/04 00:54:05;;;;;;;2.22;0.90;;;15.50;99.90;;;;;;5054988;28;20049;-71
2023/08/04 00:56:34;;;;;;;2.80;1.00;;;15.50;99.90;;;;;;5053416;28;20133;-71
2023/08/04 00:59:02;;;;;;;2.30;0.82;;;15.50;99.90;;;;;;5053719;28;20527;-71
2023/08/04 01:01:28;;;;;;;3.10;1.20;;;15.40;99.90;;;;;;5055085;28;20045;-70
2023/08/04 01:03:58;;;;;;;3.13;1.00;;;15.40;99.90;;;;;;5053909;28;20033;-71
2023/08/04 01:06:50;;;;;;;2.33;1.00;;;15.40;99.90;;;;;;5052815;28;20094;-71
2023/08/04 01:09:39;;;;;;;4.78;1.05;;;15.50;99.90;;;;;;5049553;28;20053;-71
2023/08/04 01:12:20;;;;;;;3.42;1.00;;;15.50;99.90;;;;;;5052919;28;20049;-71
2023/08/04 01:14:49;;;;;;;2.75;0.98;;;15.50;99.90;;;;;;5053291;28;20122;-71
2023/08/04 01:17:28;;;;;;;4.63;1.13;;;15.50;99.90;;;;;;5054288;28;20059;-71
2023/08/04 01:19:54;;;;;;;3.53;1.17;;;15.50;99.90;;;;;;5052225;28;20049;-71
2023/08/04 01:22:21;;;;;;;2.78;1.00;;;15.50;99.90;;;;;;5054600;28;20082;-70
2023/08/04 01:24:47;;;;;;;3.50;1.00;;;15.50;99.90;;;;;;5053374;28;20544;-71
2023/08/04 01:27:21;;;;;;;3.35;1.00;;;15.50;99.90;;;;;;5053085;28;20470;-71
2023/08/04 01:29:47;;;;;;;3.42;1.10;;;15.50;99.90;;;;;;5035339;28;20378;-71
2023/08/04 01:32:16;;;;;;;6.53;1.30;;;15.50;99.90;;;;;;5053624;28;20056;-71
2023/08/04 01:34:44;;;;;;;3.05;1.20;;;15.50;99.90;;;;;;5035659;28;20049;-71
2023/08/04 01:37:13;;;;;;;4.03;1.20;;;15.60;99.90;;;;;;5036284;28;20432;-70
2023/08/04 01:39:39;;;;;;;3.35;1.02;;;15.60;99.90;;;;;;5053163;28;20128;-71
2023/08/04 01:42:05;;;;;;;2.45;1.10;;;15.60;99.90;;;;;;5035732;28;20132;-71
2023/08/04 01:44:31;;;;;;;4.43;1.23;;;15.60;99.90;;;;;;5036073;28;20045;-71
2023/08/04 01:47:05;;;;;;;3.17;1.20;;;15.60;99.90;;;;;;5053580;28;20514;-70
2023/08/04 01:49:31;;;;;;;4.45;1.20;;;15.60;99.90;;;;;;5053892;28;20041;-70
2023/08/04 01:51:57;;;;;;;4.90;1.27;;;15.60;99.90;;;;;;5053360;28;20044;-71
2023/08/04 01:54:23;;;;;;;4.95;1.40;;;15.60;99.90;;;;;;5035521;28;20123;-71
2023/08/04 01:56:48;;;;;;;5.30;1.30;;;15.60;99.90;;;;;;5035414;28;20053;-71
2023/08/04 01:59:14;;;;;;;3.75;1.40;;;15.70;99.90;;;;;;5035061;28;20135;-71
2023/08/04 02:01:40;;;;;;;5.22;1.50;;;15.70;99.90;;;;;;5052299;28;20473;-71
2023/08/04 02:04:06;;;;;;;4.40;1.58;;;15.70;99.90;;;;;;5053840;28;20041;-71
2023/08/04 02:06:32;;;;;;;5.70;1.30;;;15.70;99.90;;;;;;5035227;28;20136;-71
2023/08/04 02:08:58;;;;;;;3.47;1.70;;;15.70;99.90;;;;;;5052333;28;20040;-71
2023/08/04 02:11:23;;;;;;;4.55;1.27;;;15.70;99.90;;;;;;5035322;28;20485;-71
2023/08/04 02:13:49;;;;;;;6.20;1.75;;;15.70;99.90;;;;;;5035527;28;20052;-71
2023/08/04 02:16:15;;;;;;;6.88;1.67;;;15.80;99.90;;;;;;5034965;28;20076;-71
2023/08/04 02:18:40;;;;;;;5.75;1.80;;;15.80;99.90;;;;;;5052824;28;20533;-71
2023/08/04 02:21:07;;;;;;;5.22;1.70;;;15.80;99.90;;;;;;5034817;28;20075;-71
2023/08/04 02:23:35;;;;;;;4.20;1.90;;;15.80;99.90;;;;;;5052795;28;20064;-71
2023/08/04 02:26:01;;;;;;;4.85;1.70;;;15.80;99.90;;;;;;5039752;28;20061;-71
2023/08/04 02:28:26;;;;;;;4.35;1.80;;;15.70;99.90;;;;;;5050946;28;20049;-71
2023/08/04 02:30:52;;;;;;;4.88;1.90;;;15.70;99.90;;;;;;5052027;28;20059;-71
2023/08/04 02:33:21;;;;;;;5.05;1.67;;;15.70;99.90;;;;;;5051727;28;20378;-71
2023/08/04 02:35:49;;;;;;;5.38;1.83;;;15.60;99.90;;;;;;5050794;28;20045;-71
2023/08/04 02:38:15;;;;;;;4.07;1.83;;;15.60;99.90;;;;;;5051535;28;20049;-71
2023/08/04 02:40:41;;;;;;;5.80;1.60;;;15.60;99.90;;;;;;5051547;28;20503;-71
2023/08/04 02:43:07;;;;;;;6.22;2.10;;;15.60;99.90;;;;;;5051080;28;20082;-71
2023/08/04 02:45:32;;;;;;;5.03;2.08;;;15.60;99.90;;;;;;5052489;28;20083;-71
2023/08/04 02:47:58;;;;;;;7.72;2.30;;;15.60;99.90;;;;;;5052902;28;20080;-70
2023/08/04 02:50:24;;;;;;;6.15;2.40;;;15.60;99.90;;;;;;5051202;28;20045;-71
2023/08/04 02:52:49;;;;;;;8.77;2.47;;;15.60;99.90;;;;;;5051034;28;20049;-71
2023/08/04 02:55:15;;;;;;;5.68;1.95;;;15.50;99.90;;;;;;5051429;28;20045;-71
2023/08/04 02:57:41;;;;;;;6.15;1.98;;;15.50;99.90;;;;;;5050629;28;20048;-70
2023/08/04 03:00:16;;;;;;;5.38;2.15;;;15.50;99.90;;;;;;5051588;28;20155;-71
2023/08/04 03:02:41;;;;;;;6.63;2.10;;;15.40;99.90;;;;;;5052492;28;20045;-71
2023/08/04 03:05:07;;;;;;;4.13;1.75;;;15.50;99.90;;;;;;5050557;28;20453;-71
2023/08/04 03:07:34;;;;;;;5.32;2.05;;;15.50;99.90;;;;;;5052115;28;20045;-71
2023/08/04 03:10:00;;;;;;;8.18;1.80;;;15.40;99.90;;;;;;5051543;28;20045;-70
2023/08/04 03:12:28;;;;;;;5.43;1.65;;;15.40;99.90;;;;;;5050456;28;20041;-71
2023/08/04 03:14:54;;;;;;;5.50;1.83;;;15.40;99.90;;;;;;5052043;28;20048;-71
2023/08/04 03:17:20;;;;;;;4.22;1.70;;;15.40;99.90;;;;;;5050619;28;20408;-71
2023/08/04 03:19:46;;;;;;;6.32;1.77;;;15.30;99.90;;;;;;5051955;28;20470;-71
2023/08/04 03:22:11;;;;;;;5.38;1.85;;;15.30;99.90;;;;;;5051294;28;20045;-71
2023/08/04 03:24:37;;;;;;;5.90;1.90;;;15.30;99.90;;;;;;5050014;28;20053;-71
2023/08/04 03:27:03;;;;;;;4.15;1.73;;;15.30;99.90;;;;;;5049517;28;20072;-71
2023/08/04 03:29:29;;;;;;;5.32;1.73;;;15.30;99.90;;;;;;5051598;28;20048;-71
2023/08/04 03:31:54;;;;;;;4.70;2.00;;;15.30;99.90;;;;;;5048804;28;20477;-71
2023/08/04 03:34:23;;;;;;;3.60;1.75;;;15.20;99.90;;;;;;5052122;28;20045;-71
2023/08/04 03:36:49;;;;;;;6.18;2.38;;;15.30;99.90;;;;;;5050607;28;20044;-70
2023/08/04 03:39:17;;;;;;;6.35;2.00;;;15.40;99.90;;;;;;5051960;28;20048;-71
2023/08/04 03:41:45;;;;;;;7.85;2.30;;;15.40;99.90;;;;;;5051942;28;20052;-71
2023/08/04 03:44:11;;;;;;;10.80;2.33;;;15.40;99.90;;;;;;5050547;28;20049;-71
2023/08/04 03:46:39;;;;;;;7.53;2.10;;;15.40;99.90;;;;;;5050962;28;20048;-71
2023/08/04 03:49:05;;;;;;;4.90;2.05;;;15.40;99.90;;;;;;5052304;28;20041;-71
2023/08/04 03:51:30;;;;;;;7.43;2.40;;;15.40;99.90;;;;;;5052199;28;20045;-71
2023/08/04 03:53:56;;;;;;;5.97;2.15;;;15.40;99.90;;;;;;5056459;28;20041;-70
2023/08/04 03:56:25;;;;;;;8.13;2.30;;;15.40;99.90;;;;;;5057106;28;20120;-71
2023/08/04 03:58:50;;;;;;;4.82;2.25;;;15.40;99.90;;;;;;5055658;28;20441;-71
2023/08/04 04:01:16;;;;;;;4.88;2.40;;;15.40;99.90;;;;;;5056757;28;20068;-70
2023/08/04 04:03:45;;;;;;;6.22;2.63;;;15.40;99.90;;;;;;5057300;28;20045;-71
2023/08/04 04:06:16;;;;;;;6.00;2.10;;;15.40;99.90;;;;;;5055920;28;20475;-70
2023/08/04 04:08:42;;;;;;;7.28;2.03;;;15.30;99.90;;;;;;5055848;28;20045;-70
2023/08/04 04:11:08;;;;;;;6.00;1.90;;;15.30;99.90;;;;;;5055514;28;20095;-70
2023/08/04 04:13:34;;;;;;;4.65;2.13;;;15.30;99.90;;;;;;5053080;28;20132;-71
2023/08/04 04:16:05;;;;;;;6.40;2.13;;;15.30;99.90;;;;;;5054266;28;20045;-71
2023/08/04 04:18:31;;;;;;;6.65;2.50;;;15.30;99.90;;;;;;5055071;28;20507;-71
2023/08/04 04:20:57;;;;;;;3.72;1.85;;;15.30;99.90;;;;;;5054160;28;20037;-71
2023/08/04 04:23:25;;;;;;;5.40;2.50;;;15.30;99.90;;;;;;5054184;28;20056;-70
2023/08/04 04:25:51;;;;;;;6.05;2.10;;;15.30;99.90;;;;;;5053843;28;20139;-71
2023/08/04 04:28:16;;;;;;;5.75;2.03;;;15.30;99.90;;;;;;5054726;28;20041;-71
2023/08/04 04:30:42;;;;;;;4.78;2.10;;;15.30;99.90;;;;;;5053795;28;20072;-71
2023/08/04 04:33:08;;;;;;;4.55;2.05;;;15.30;99.90;;;;;;5053847;28;20049;-71
2023/08/04 04:35:34;;;;;;;6.50;2.30;;;15.30;99.90;;;;;;5053088;28;20099;-70
2023/08/04 04:37:59;;;;;;;6.45;2.10;;;15.30;99.90;;;;;;5053897;28;20048;-71
2023/08/04 04:40:25;;;;;;;5.63;1.95;;;15.30;99.90;;;;;;5055256;28;20063;-70
2023/08/04 04:43:11;;;;;;;4.28;1.90;;;15.30;99.90;;;;;;5052715;28;20453;-70
2023/08/04 04:45:37;;;;;;;4.83;1.90;;;15.30;99.90;;;;;;5039488;28;20057;-71
2023/08/04 04:48:03;;;;;;;4.00;1.80;;;15.30;99.90;;;;;;5055221;28;20040;-71
2023/08/04 04:50:29;;;;;;;5.63;1.95;;;15.30;99.90;;;;;;5052959;28;20087;-71
2023/08/04 04:52:54;;;;;;;5.43;1.92;;;15.30;99.90;;;;;;5053004;28;20109;-71
2023/08/04 04:55:20;;;;;;;4.95;2.10;;;15.30;99.90;;;;;;5053358;28;20045;-71
2023/08/04 04:57:46;;;;;;;5.05;2.10;;;15.40;99.90;;;;;;5052460;28;20131;-70
2023/08/04 05:00:15;;;;;;;4.70;2.17;;;15.40;99.90;;;;;;5054514;28;20037;-71
2023/08/04 05:02:40;;;;;;;4.70;1.90;;;15.50;99.90;;;;;;5053217;28;20044;-71
2023/08/04 05:05:07;;;;;;;3.80;1.95;;;15.50;99.90;;;;;;5053865;28;20393;-71
2023/08/04 05:07:35;;;;;;;5.22;2.00;;;15.60;99.90;;;;;;5053056;28;20127;-71
2023/08/04 05:10:03;;;;;;;5.05;2.15;;;15.60;99.90;;;;;;5052782;28;20119;-71
2023/08/04 05:12:29;;;;;;;5.60;2.10;;;15.70;99.90;;;;;;5053166;28;20402;-71
2023/08/04 05:14:55;;;;;;;4.78;2.08;;;15.70;99.90;;;;;;5052218;28;20052;-71
2023/08/04 05:17:21;;;;;;;4.10;1.85;;;15.70;99.90;;;;;;5054107;28;20051;-71
2023/08/04 05:19:46;;;;;;;4.60;1.80;;;15.80;99.90;;;;;;5052583;28;20053;-71
2023/08/04 05:22:12;;;;;;;3.67;1.80;;;15.90;99.90;;;;;;5052615;28;20047;-71
2023/08/04 05:24:38;;;;;;;4.93;2.00;;;15.90;99.90;;;;;;5052159;28;20055;-71
2023/08/04 05:27:14;;;;;;;6.60;1.90;;;16.00;99.90;;;;;;5052831;28;20420;-71
2023/08/04 05:29:39;;;;;;;4.55;2.03;;;16.00;99.90;;;;;;5034946;28;20033;-70
2023/08/04 05:32:09;;;;;;;3.55;1.80;;;16.10;99.90;;;;;;5051904;28;20401;-71
2023/08/04 05:34:34;;;;;;;10.57;2.30;;;16.10;99.90;;;;;;5034900;28;20045;-71
2023/08/04 05:37:00;;;;;;;7.85;2.25;;;16.20;99.90;;;;;;5035169;28;20401;-71
2023/08/04 05:39:26;;;;;;;7.07;2.30;;;16.30;99.90;;;;;;5034391;28;20451;-71
2023/08/04 05:41:51;;;;;;;5.88;2.00;;;16.30;99.90;;;;;;5034700;28;20045;-71
2023/08/04 05:44:17;;;;;;;5.05;1.75;;;16.40;99.90;;;;;;5052786;28;20044;-71
2023/08/04 05:46:45;;;;;;;7.95;1.70;;;16.40;99.90;;;;;;5034143;28;20374;-71
2023/08/04 05:49:11;;;;;;;4.75;1.45;;;16.50;99.90;;;;;;5052745;28;20063;-71
2023/08/04 05:51:37;;;;;;;4.22;1.25;;;16.60;99.90;;;;;;5052687;28;20094;-71
2023/08/04 05:54:02;;;;;;;2.80;1.33;;;16.60;99.90;;;;;;5052225;28;20049;-71
2023/08/04 05:56:31;;;;;;;5.38;1.23;;;16.70;99.90;;;;;;5052458;28;20044;-71
2023/08/04 05:58:56;;;;;;;3.05;1.13;;;16.80;99.90;;;;;;5034939;28;20045;-71
2023/08/04 06:01:23;;;;;;;4.22;1.50;;;16.80;99.90;;;;;;5034169;28;20086;-71
2023/08/04 06:03:49;;;;;;;4.25;1.30;;;16.90;99.90;;;;;;5034177;28;20397;-71
2023/08/04 06:06:14;;;;;;;3.75;1.40;;;17.00;99.90;;;;;;5051947;28;20045;-71
2023/08/04 06:08:43;;;;;;;4.63;1.20;;;17.10;99.90;;;;;;5051517;28;20052;-71
2023/08/04 06:11:09;;;;;;;2.47;1.08;;;17.10;99.90;;;;;;5034386;28;20045;-71
2023/08/04 06:13:38;;;;;;;7.55;1.40;;;17.10;99.90;;;;;;5051356;28;20045;-71
2023/08/04 06:16:04;;;;;;;4.32;1.15;;;17.10;99.90;;;;;;5034311;28;20049;-71
2023/08/04 06:18:30;;;;;;;4.97;1.42;;;17.10;99.90;;;;;;5034038;28;20083;-71
2023/08/04 06:20:56;;;;;;;5.93;1.50;;;17.00;99.90;;;;;;5033575;28;20436;-71
2023/08/04 06:23:21;;;;;;;4.68;1.40;;;17.00;99.90;;;;;;5052356;28;20099;-71
2023/08/04 06:25:47;;;;;;;4.43;1.40;;;17.10;99.90;;;;;;5009100;28;1209963;-71
2023/08/04 06:28:13;;;;;;;4.70;1.50;;;17.20;99.90;;;;;;5033300;28;20544;-71
2023/08/04 06:30:39;;;;;;;4.88;1.50;;;17.20;99.90;;;;;;5034722;28;20041;-71
2023/08/04 06:33:04;;;;;;;3.80;1.40;;;17.20;99.90;;;;;;5052741;28;20041;-71
2023/08/04 06:35:30;;;;;;;4.97;1.70;;;17.30;99.90;;;;;;5051457;28;20040;-71
2023/08/04 06:37:56;;;;;;;5.30;1.45;;;17.30;99.90;;;;;;5034374;28;20059;-71
2023/08/04 06:40:22;;;;;;;6.47;1.98;;;17.20;99.90;;;;;;5052488;28;20041;-71
2023/08/04 06:42:48;;;;;;;2.97;1.40;;;17.20;99.90;;;;;;5033903;28;20139;-71
2023/08/04 06:45:15;;;;;;;3.88;1.42;;;17.20;99.90;;;;;;5035005;28;20052;-71
2023/08/04 06:47:43;;;;;;;6.82;1.70;;;17.20;99.90;;;;;;5052284;28;20053;-71
2023/08/04 06:50:09;;;;;;;4.32;1.65;;;17.20;99.90;;;;;;5051936;28;20110;-71
2023/08/04 06:52:35;;;;;;;6.97;1.98;;;17.00;99.90;;;;;;5034293;28;20610;-71
2023/08/04 06:55:01;;;;;;;5.03;1.70;;;17.10;99.90;;;;;;5034538;28;20137;-71
2023/08/04 06:57:30;;;;;;;6.18;1.77;;;17.10;99.90;;;;;;5033773;28;20033;-71
2023/08/04 06:59:58;;;;;;;3.85;1.70;;;17.10;99.90;;;;;;5034350;28;20060;-71
2023/08/04 07:02:24;;;;;;;5.30;1.70;;;17.20;99.90;;;;;;5033973;28;20144;-71
2023/08/04 07:04:52;;;;;;;4.53;1.65;;;17.20;99.90;;;;;;5051397;28;20128;-71
2023/08/04 07:07:17;;;;;;;9.50;2.08;;;17.30;99.90;;;;;;5052333;28;20090;-71
2023/08/04 07:09:43;;;;;;;4.43;1.70;;;17.50;99.90;;;;;;5033847;28;20056;-71
2023/08/04 07:12:09;;;;;;;4.85;1.90;;;17.60;99.90;;;;;;5033897;28;20076;-71
2023/08/04 07:14:35;;;;;;;4.85;1.50;;;17.80;99.90;;;;;;5034517;28;20052;-71
2023/08/04 07:17:04;;;;;;;6.72;1.95;;;17.90;99.90;;;;;;5051823;28;20194;-71
2023/08/04 07:19:29;;;;;;;3.10;1.40;;;17.90;99.90;;;;;;5034530;28;20083;-71
2023/08/04 07:21:55;;;;;;;4.80;1.52;;;18.10;99.90;;;;;;5033413;28;20049;-71
2023/08/04 07:24:21;;;;;;;5.88;1.58;;;18.30;99.90;;;;;;5051647;28;20143;-71
2023/08/04 07:26:47;;;;;;;5.97;1.60;;;18.40;99.90;;;;;;5046436;28;20477;-71
2023/08/04 07:29:13;;;;;;;4.35;1.60;;;18.60;99.90;;;;;;5054564;28;20638;-71
2023/08/04 07:31:39;;;;;;;6.75;1.98;;;18.70;99.90;;;;;;5053489;28;20041;-71
2023/08/04 07:34:04;;;;;;;5.28;1.50;;;18.70;99.90;;;;;;5055164;28;20052;-71
2023/08/04 07:36:30;;;;;;;5.85;1.70;;;18.80;99.90;;;;;;5056397;28;20037;-71
2023/08/04 07:38:56;;;;;;;3.63;1.50;;;18.70;99.90;;;;;;5055262;28;20068;-71
2023/08/04 07:41:24;;;;;;;5.10;1.63;;;18.70;99.90;;;;;;5056564;28;20075;-71
2023/08/04 07:43:50;;;;;;;5.00;1.50;;;18.70;99.90;;;;;;5055566;28;20484;-71
2023/08/04 07:46:27;;;;;;;4.18;1.50;;;18.70;99.90;;;;;;5055774;28;20052;-71
2023/08/04 07:48:56;;;;;;;5.30;1.60;;;18.70;99.90;;;;;;5054454;28;20508;-71
2023/08/04 07:51:25;;;;;;;4.25;1.48;;;18.60;99.90;;;;;;5056154;28;20071;-71
2023/08/04 07:53:51;;;;;;;7.95;1.70;;;18.60;99.90;;;;;;5052996;28;20176;-71
2023/08/04 07:56:17;;;;;;;4.72;1.50;;;18.70;99.90;;;;;;5054790;28;20127;-71
2023/08/04 07:58:43;;;;;;;4.93;1.40;;;18.80;99.90;;;;;;5054151;28;20079;-71
2023/08/04 08:01:09;;;;;;;4.15;1.52;;;18.80;99.90;;;;;;5053772;28;20171;-71
2023/08/04 08:03:35;;;;;;;6.07;1.67;;;18.90;99.90;;;;;;5055629;28;20078;-71
2023/08/04 08:06:02;;;;;;;3.50;1.25;;;19.00;99.90;;;;;;5053883;28;20056;-71
2023/08/04 08:08:31;;;;;;;2.80;1.35;;;19.10;99.90;;;;;;5055549;28;20047;-72
2023/08/04 08:11:03;;;;;;;4.38;1.50;;;19.20;99.90;;;;;;5055680;28;20051;-71
2023/08/04 08:13:32;;;;;;;4.10;1.48;;;19.30;99.90;;;;;;5053564;28;20053;-71
2023/08/04 08:16:05;;;;;;;6.25;1.50;;;19.40;99.90;;;;;;5053891;28;20128;-71
2023/08/04 08:18:36;;;;;;;5.13;1.50;;;19.20;99.90;;;;;;5055727;28;20057;-71
2023/08/04 08:21:09;;;;;;;8.73;2.22;;;19.30;99.90;;;;;;5052915;28;20077;-71
2023/08/04 08:23:36;;;;;;;6.28;1.75;;;19.30;99.90;;;;;;5034011;28;20551;-71
2023/08/04 08:26:03;;;;;;;5.32;1.60;;;19.40;99.90;;;;;;5033897;28;20092;-71
2023/08/04 08:28:29;;;;;;;6.50;2.38;;;19.70;99.90;;;;;;5039062;28;20076;-72
2023/08/04 08:30:55;;;;;;;7.07;1.83;;;19.90;99.90;;;;;;5055289;28;20068;-71
2023/08/04 08:33:21;;;;;;;6.38;1.98;;;20.10;99.90;;;;;;5053245;28;20053;-72
2023/08/04 08:35:47;;;;;;;7.22;1.88;;;20.20;99.90;;;;;;5054328;28;20071;-72
2023/08/04 08:38:13;;;;;;;6.60;2.00;;;20.30;99.90;;;;;;5053221;28;20045;-72
2023/08/04 08:40:39;;;;;;;7.40;1.98;;;20.20;99.90;;;;;;5053821;28;20037;-72
2023/08/04 08:43:04;;;;;;;7.93;1.90;;;20.30;99.90;;;;;;5052919;28;20081;-72
2023/08/04 08:45:33;;;;;;;6.35;1.90;;;20.40;99.90;;;;;;5055254;28;20508;-72
2023/08/04 08:48:04;;;;;;;5.90;1.73;;;20.30;99.90;;;;;;5052601;28;20088;-72
2023/08/04 08:50:33;;;;;;;5.72;2.05;;;20.20;99.90;;;;;;5052429;28;20041;-72
2023/08/04 08:53:12;;;;;;;5.63;1.95;;;20.30;99.90;;;;;;5052408;28;20167;-72
2023/08/04 08:55:39;;;;;;;9.25;1.92;;;20.40;99.90;;;;;;5052512;28;20049;-72
2023/08/04 08:58:11;;;;;;;4.40;1.63;;;20.40;99.90;;;;;;5053531;28;20053;-72
2023/08/04 09:00:37;;;;;;;7.40;2.00;;;20.40;99.90;;;;;;5053329;28;20044;-72
2023/08/04 09:03:04;;;;;;;4.63;1.80;;;20.40;99.90;;;;;;5053715;28;20040;-72
2023/08/04 09:05:32;;;;;;;5.00;1.88;;;20.40;99.90;;;;;;5053586;28;20134;-72
2023/08/04 09:08:03;;;;;;;7.05;1.90;;;20.60;99.90;;;;;;5053545;28;20044;-72
2023/08/04 09:10:29;;;;;;;4.10;1.58;;;20.30;99.90;;;;;;5053979;28;20045;-72
2023/08/04 09:12:58;;;;;;;6.45;1.70;;;20.20;99.90;;;;;;5052704;28;20049;-72
2023/08/04 09:15:35;;;;;;;6.13;1.90;;;20.70;99.90;;;;;;5053272;28;20095;-72
2023/08/04 09:18:06;;;;;;;9.60;2.25;;;21.10;99.90;;;;;;5053769;28;20048;-72
2023/08/04 09:20:32;;;;;;;8.00;1.92;;;22.00;99.90;;;;;;5054007;28;20051;-72
2023/08/04 09:23:02;;;;;;;7.40;1.95;;;22.00;99.90;;;;;;5052027;28;20045;-72
2023/08/04 09:25:28;;;;;;;5.95;1.90;;;21.80;99.90;;;;;;5054277;28;20091;-71
2023/08/04 09:27:55;;;;;;;7.35;1.98;;;21.40;99.90;;;;;;5054368;28;20053;-72
2023/08/04 09:30:22;;;;;;;6.20;1.55;;;21.30;99.90;;;;;;5036595;28;20474;-73
2023/08/04 09:32:52;;;;;;;8.40;2.15;;;21.10;99.90;;;;;;5053840;28;20052;-71
2023/08/04 09:35:21;;;;;;;3.95;1.50;;;21.30;99.90;;;;;;5036247;28;20131;-72
2023/08/04 09:37:46;;;;;;;5.38;1.60;;;21.30;99.90;;;;;;5053092;28;20477;-72
2023/08/04 09:40:19;;;;;;;6.97;1.83;;;21.20;99.90;;;;;;5053761;28;20074;-72
2023/08/04 09:42:58;;;;;;;9.60;1.98;;;21.60;99.90;;;;;;5035293;28;20045;-72
2023/08/04 09:45:24;;;;;;;4.80;1.50;;;22.90;99.90;;;;;;5035254;28;20106;-73
2023/08/04 09:47:51;;;;;;;3.78;1.40;;;22.90;99.90;;;;;;5035851;28;20131;-72
2023/08/04 09:50:22;;;;;;;5.93;2.05;;;23.50;99.90;;;;;;5053314;28;20033;-72
2023/08/04 09:53:02;;;;;;;6.00;1.50;;;24.20;99.90;;;;;;5052100;28;20037;-72
2023/08/04 09:55:28;;;;;;;5.40;1.50;;;24.90;99.90;;;;;;5035272;28;20040;-72
2023/08/04 09:57:54;;;;;;;5.75;1.40;;;25.70;99.90;;;;;;5034822;28;20045;-73
2023/08/04 10:00:20;;;;;;;4.97;1.17;;;25.70;99.90;;;;;;5035351;28;20037;-72
2023/08/04 10:02:46;;;;;;;3.80;1.30;;;24.90;99.60;;;;;;5052830;28;20049;-72
2023/08/04 10:05:12;;;;;;;5.55;1.50;;;24.90;99.90;;;;;;5035479;28;20067;-70
2023/08/04 10:07:39;;;;;;;5.75;1.45;;;25.20;99.90;;;;;;5035343;28;20052;-70
2023/08/04 10:10:07;;;;;;;5.82;1.60;;;25.60;99.90;;;;;;5053467;28;20083;-70
2023/08/04 10:12:34;;;;;;;3.15;1.10;;;25.90;99.90;;;;;;5052524;28;20078;-70
2023/08/04 10:15:00;;;;;;;5.65;1.50;;;25.70;99.70;;;;;;5034959;28;20041;-70
2023/08/04 10:17:26;;;;;;;3.05;1.00;;;25.60;99.80;;;;;;5053313;28;20094;-70
2023/08/04 10:20:02;;;;;;;3.47;1.10;;;25.60;99.30;;;;;;5052224;28;20090;-70
2023/08/04 10:22:31;;;;;;;5.47;1.30;;;25.30;98.80;;;;;;5035050;28;20539;-70
2023/08/04 10:24:57;;;;;;;4.68;1.20;;;25.50;99.20;;;;;;5035403;28;20139;-72
2023/08/04 10:27:23;;;;;;;4.55;1.20;;;25.90;99.70;;;;;;5049889;28;20480;-72
2023/08/04 10:30:24;;;;;;;3.65;1.08;;;26.40;99.10;;;;;;5051705;28;20143;-72
2023/08/04 10:32:50;;;;;;;4.53;1.10;;;26.50;98.00;;;;;;5019524;28;20143;-72
2023/08/04 10:35:25;;;;;;;4.10;1.10;;;26.80;97.60;;;;;;5052374;28;20041;-72
2023/08/04 10:37:59;;;;;;;2.83;0.98;;;26.70;97.50;;;;;;5051725;28;20049;-72
2023/08/04 10:40:32;;;;;;;3.83;1.20;;;27.00;98.00;;;;;;5052469;28;20120;-72
2023/08/04 10:43:04;;;;;;;3.75;1.30;;;27.10;97.50;;;;;;5052502;28;20127;-72
2023/08/04 10:45:52;;;;;;;4.07;1.10;;;27.40;97.30;;;;;;5051239;28;20472;-72
2023/08/04 10:48:20;;;;;;;5.13;1.10;;;27.40;96.00;;;;;;5050931;28;20128;-72
2023/08/04 10:50:48;;;;;;;5.60;1.20;;;26.90;96.10;;;;;;5051026;28;20053;-72
2023/08/04 10:53:17;;;;;;;5.63;1.20;;;26.40;97.30;;;;;;5051444;28;20106;-72
2023/08/04 10:55:54;;;;;;;4.03;1.20;;;26.00;97.80;;;;;;5051394;28;20485;-72
2023/08/04 10:58:21;;;;;;;2.08;1.00;;;25.60;97.80;;;;;;5052883;28;20131;-72
2023/08/04 11:00:47;;;;;;;2.67;1.02;;;25.10;97.50;;;;;;5050543;28;20041;-72
2023/08/04 11:03:23;;;;;;;3.42;1.20;;;24.60;99.10;;;;;;5050060;28;20052;-72
2023/08/04 11:05:50;;;;;;;4.28;1.25;;;24.80;99.90;;;;;;5051231;28;20389;-72
2023/08/04 11:08:18;;;;;;;4.45;1.55;;;24.90;99.90;;;;;;5052477;28;20392;-72
2023/08/04 11:10:46;;;;;;;3.45;1.50;;;24.90;99.90;;;;;;5051326;28;20111;-72
2023/08/04 11:13:12;;;;;;;4.38;1.77;;;24.90;99.90;;;;;;5052348;28;20559;-72
2023/08/04 11:15:44;;;;;;;3.38;1.23;;;24.50;99.90;;;;;;5051196;28;20045;-72
2023/08/04 11:18:15;;;;;;;4.43;1.73;;;24.30;99.90;;;;;;5051331;28;20044;-72
2023/08/04 11:20:42;;;;;;;5.45;1.30;;;24.00;99.90;;;;;;5050944;28;20508;-72
2023/08/04 11:23:10;;;;;;;4.32;1.63;;;23.80;99.90;;;;;;5051827;28;20132;-72
2023/08/04 11:25:40;;;;;;;5.47;1.83;;;23.80;99.90;;;;;;5051836;28;20057;-72
2023/08/04 11:28:07;;;;;;;3.20;1.55;;;23.70;99.90;;;;;;5052374;28;20061;-72
2023/08/04 11:30:36;;;;;;;4.03;1.50;;;23.70;99.90;;;;;;5032933;28;20440;-73
2023/08/04 11:33:03;;;;;;;4.57;1.83;;;23.80;99.90;;;;;;5052132;28;20057;-71
2023/08/04 11:35:32;;;;;;;7.03;1.67;;;23.60;99.90;;;;;;5052159;28;20572;-70
2023/08/04 11:38:03;;;;;;;6.53;1.60;;;24.00;99.90;;;;;;5033275;28;20543;-70
2023/08/04 11:40:29;;;;;;;5.65;1.55;;;24.20;99.90;;;;;;5052281;28;20045;-70
2023/08/04 11:42:59;;;;;;;5.10;1.50;;;24.40;99.90;;;;;;5034280;28;20124;-71
2023/08/04 11:45:25;;;;;;;4.60;1.40;;;24.60;99.90;;;;;;5033480;28;20106;-71
2023/08/04 11:47:55;;;;;;;4.25;1.27;;;24.30;99.90;;;;;;5033655;28;20091;-71
2023/08/04 11:50:21;;;;;;;4.15;1.30;;;24.20;99.90;;;;;;5032698;28;20090;-71
2023/08/04 11:52:47;;;;;;;4.82;1.60;;;24.30;99.90;;;;;;5030883;28;20038;-70
2023/08/04 11:55:13;;;;;;;2.78;1.23;;;24.10;99.90;;;;;;5014750;28;20045;-71
2023/08/04 11:57:52;;;;;;;4.18;1.30;;;24.10;99.90;;;;;;5020534;28;20126;-71
2023/08/04 12:00:32;;;;;;;5.38;1.58;;;24.10;99.40;;;;;;5034003;28;20056;-71
2023/08/04 12:03:00;;;;;;;4.53;1.40;;;23.90;99.60;;;;;;5052130;28;20503;-71
2023/08/04 12:05:31;;;;;;;4.85;1.55;;;24.00;99.90;;;;;;5033612;28;20088;-71
2023/08/04 12:08:11;;;;;;;4.25;1.55;;;23.90;99.90;;;;;;5051405;28;20048;-70
2023/08/04 12:10:37;;;;;;;4.00;1.60;;;23.70;99.90;;;;;;5033408;28;20052;-70
2023/08/04 12:13:03;;;;;;;4.05;1.35;;;23.30;99.90;;;;;;5035407;28;20041;-70
2023/08/04 12:15:29;;;;;;;6.22;1.65;;;22.90;99.90;;;;;;5037656;28;20048;-70
2023/08/04 12:17:57;;;;;;;3.88;1.30;;;22.60;99.90;;;;;;5037709;28;20053;-70
2023/08/04 12:20:23;;;;;;;5.45;1.42;;;22.40;99.90;;;;;;5036857;28;20048;-70
2023/08/04 12:22:49;;;;;;;7.57;1.70;;;22.20;99.90;;;;;;5037008;28;20040;-70
2023/08/04 12:25:15;;;;;;;6.53;1.65;;;22.20;99.90;;;;;;5037379;28;20048;-70
2023/08/04 12:27:41;;;;;;;6.22;1.70;;;22.30;99.90;;;;;;5054267;28;20056;-70
2023/08/04 12:30:07;;;;;;;6.20;1.50;;;22.50;99.90;;;;;;5037568;28;20128;-70
2023/08/04 12:32:33;;;;;;;5.88;1.80;;;22.60;99.90;;;;;;5037076;28;20041;-70
2023/08/04 12:34:59;;;;;;;6.35;1.50;;;23.10;99.90;;;;;;5036610;28;20052;-71
2023/08/04 12:37:25;;;;;;;4.50;1.70;;;23.40;99.90;;;;;;5036997;28;20052;-71
2023/08/04 12:39:51;;;;;;;4.72;1.80;;;23.50;99.90;;;;;;5036982;28;20040;-71
2023/08/04 12:42:17;;;;;;;4.07;1.70;;;23.40;99.90;;;;;;5036102;28;20469;-71
2023/08/04 12:44:45;;;;;;;4.38;1.50;;;23.20;99.90;;;;;;5055079;28;20040;-70
2023/08/04 12:47:14;;;;;;;6.00;1.52;;;23.40;99.90;;;;;;5029277;28;20619;-71